Wetterdaten: aktuell Sonntag, 10.05.2026 17:17
Datum Zeit Temp. A. Feuchte A. Luftdruck Regen Wind Richtung Richtung Taupunkt Windchill
10.05.2026 17:17 24,5 °C 23 % 999,7 hPa 0,0 l/m² 10,8 km/h (2 Bft) N±22.5° 355 ° 2,0 °C 23,4 °C
10.05.2026 17:15 24,6 °C 24 % 999,7 hPa 0,0 l/m² 10,8 km/h (2 Bft) N±22.5° 355 ° 2,7 °C 23,6 °C
10.05.2026 17:13 24,6 °C 24 % 999,7 hPa 0,0 l/m² 2,9 km/h (1 Bft) N±22.5° 355 ° 2,7 °C 24,6 °C
10.05.2026 17:11 24,6 °C 24 % 999,7 hPa 0,0 l/m² 6,1 km/h (2 Bft) N±22.5° 355 ° 2,7 °C 24,6 °C
10.05.2026 17:09 24,6 °C 22 % 999,7 hPa 0,0 l/m² 5,1 km/h (1 Bft) N±22.5° 350 ° 1,5 °C 24,6 °C
10.05.2026 17:07 24,7 °C 20 % 999,7 hPa 0,0 l/m² 5,1 km/h (1 Bft) N±22.5° 350 ° 0,2 °C 24,7 °C
10.05.2026 17:05 24,7 °C 20 % 999,7 hPa 0,0 l/m² 1,7 km/h (1 Bft) N±22.5° 350 ° 0,2 °C 24,7 °C
10.05.2026 17:03 24,6 °C 20 % 999,7 hPa 0,0 l/m² 0,3 km/h (0 Bft) N 360 ° 0,2 °C 24,6 °C
10.05.2026 17:01 24,6 °C 20 % 999,7 hPa 0,0 l/m² 1,3 km/h (1 Bft) N±22.5° 10 ° 0,2 °C 24,6 °C
10.05.2026 16:58 24,6 °C 20 % 999,7 hPa 0,0 l/m² 1,3 km/h (1 Bft) N±22.5° 10 ° 0,2 °C 24,6 °C
10.05.2026 16:56 24,7 °C 20 % 999,7 hPa 0,0 l/m² 0,6 km/h (0 Bft) N-NO 30 ° 0,2 °C 24,7 °C
10.05.2026 16:55 24,7 °C 20 % 999,7 hPa 0,0 l/m² 3,0 km/h (1 Bft) O-NO±45° 60 ° 0,2 °C 24,7 °C
10.05.2026 16:53 24,7 °C 20 % 999,7 hPa 0,0 l/m² 3,0 km/h (1 Bft) O-NO±45° 60 ° 0,2 °C 24,7 °C
10.05.2026 16:51 24,8 °C 20 % 999,7 hPa 0,0 l/m² 0,0 km/h (0 Bft) O-SO 105 ° 0,3 °C 24,8 °C
10.05.2026 16:49 24,8 °C 20 % 999,7 hPa 0,0 l/m² 0,4 km/h (0 Bft) O-SO 105 ° 0,3 °C 24,8 °C
10.05.2026 16:47 24,8 °C 20 % 999,7 hPa 0,0 l/m² 2,5 km/h (1 Bft) O-SO 105 ° 0,3 °C 24,8 °C
10.05.2026 16:45 24,8 °C 20 % 999,7 hPa 0,0 l/m² 2,5 km/h (1 Bft) O-SO 105 ° 0,3 °C 24,8 °C
10.05.2026 16:43 24,8 °C 20 % 999,7 hPa 0,0 l/m² 0,9 km/h (0 Bft) O-SO 105 ° 0,3 °C 24,8 °C
10.05.2026 16:41 24,8 °C 20 % 999,7 hPa 0,0 l/m² 5,3 km/h (1 Bft) O-SO 105 ° 0,3 °C 24,8 °C
10.05.2026 16:39 24,8 °C 20 % 999,7 hPa 0,0 l/m² 5,3 km/h (1 Bft) O-SO 105 ° 0,3 °C 24,8 °C
10.05.2026 16:37 24,8 °C 20 % 999,7 hPa 0,0 l/m² 16,1 km/h (3 Bft) N-NW±45° 345 ° 0,3 °C 22,9 °C
10.05.2026 16:35 24,8 °C 20 % 999,7 hPa 0,0 l/m² 8,1 km/h (2 Bft) N±45° 10 ° 0,3 °C 24,4 °C
10.05.2026 16:33 25,1 °C 20 % 999,7 hPa 0,0 l/m² 3,1 km/h (1 Bft) O±45° 90 ° 0,6 °C 25,1 °C
10.05.2026 16:31 25,1 °C 20 % 999,7 hPa 0,0 l/m² 3,1 km/h (1 Bft) O±45° 90 ° 0,6 °C 25,1 °C
10.05.2026 16:29 25,1 °C 20 % 999,7 hPa 0,0 l/m² 0,4 km/h (0 Bft) O-SO 105 ° 0,6 °C 25,1 °C
10.05.2026 16:27 25,2 °C 20 % 999,7 hPa 0,0 l/m² 4,3 km/h (1 Bft) O-SO 105 ° 0,6 °C 25,2 °C
10.05.2026 16:25 25,3 °C 20 % 999,7 hPa 0,0 l/m² 8,4 km/h (2 Bft) O 100 ° 0,7 °C 24,8 °C
10.05.2026 16:23 25,3 °C 20 % 999,7 hPa 0,0 l/m² 8,4 km/h (2 Bft) O 100 ° 0,7 °C 24,8 °C
10.05.2026 16:21 25,4 °C 20 % 999,7 hPa 0,0 l/m² 1,1 km/h (1 Bft) O 90 ° 0,8 °C 25,4 °C
10.05.2026 16:18 25,5 °C 20 % 999,7 hPa 0,0 l/m² 8,9 km/h (2 Bft) O±22.5° 100 ° 0,9 °C 24,9 °C
10.05.2026 16:16 25,5 °C 20 % 999,7 hPa 0,0 l/m² 8,9 km/h (2 Bft) O±22.5° 100 ° 0,9 °C 24,9 °C
10.05.2026 16:15 25,6 °C 20 % 999,7 hPa 0,0 l/m² 8,9 km/h (2 Bft) O±22.5° 100 ° 1,0 °C 25,0 °C
10.05.2026 16:13 25,6 °C 20 % 1000,7 hPa 0,0 l/m² 5,9 km/h (2 Bft) N±67.5° 360 ° 1,0 °C 25,6 °C
10.05.2026 16:11 25,6 °C 20 % 1000,7 hPa 0,0 l/m² 3,9 km/h (1 Bft) N 355 ° 1,0 °C 25,6 °C
10.05.2026 16:09 25,9 °C 20 % 1000,7 hPa 0,0 l/m² 3,9 km/h (1 Bft) N 355 ° 1,2 °C 25,9 °C
10.05.2026 16:07 25,9 °C 20 % 1000,7 hPa 0,0 l/m² 7,0 km/h (2 Bft) SO±67.5° 135 ° 1,2 °C 25,8 °C
10.05.2026 16:05 25,9 °C 20 % 1000,7 hPa 0,0 l/m² 7,0 km/h (2 Bft) SO±67.5° 135 ° 1,2 °C 25,8 °C
10.05.2026 16:03 25,9 °C 20 % 1000,7 hPa 0,0 l/m² 2,8 km/h (1 Bft) NO 35 ° 1,2 °C 25,9 °C
10.05.2026 16:01 25,9 °C 20 % 1000,7 hPa 0,0 l/m² 2,8 km/h (1 Bft) NO 35 ° 1,2 °C 25,9 °C
10.05.2026 15:59 25,9 °C 20 % 1000,7 hPa 0,0 l/m² 1,0 km/h (0 Bft) N-NW±22.5° 340 ° 1,2 °C 25,9 °C
10.05.2026 15:57 25,9 °C 20 % 1000,7 hPa 0,0 l/m² 0,6 km/h (0 Bft) N-NW 335 ° 1,2 °C 25,9 °C
_ Min-Zeit 06:17 13:53 16:15 - 00:01 - - 16:58 06:17
Minimum _ 11,5 °C 20 % 999,7 hPa - 0,0 km/h (0 Bft) - - 0,2 °C 11,5 °C
_ Max-Zeit 15:05 06:31 00:39 00:01 16:37 - - 07:47 15:05
Maximum _ 26,6 °C 74 % 1008,2 hPa 0,0 l/m² 16,1 km/h
N-NW (3 Bft)
- - 7,4 °C 26,6 °C
Durchschnitt _ 17,8 °C 49 % 1004,6 hPa #0,0 l/m² 2,1 km/h (1 Bft) N - 5,2 °C 17,7 °C